createdAt,value
2017-09-18T00:00:30.280Z,14.27
2017-09-18T00:02:33.061Z,15.20
2017-09-18T00:04:36.515Z,13.77
2017-09-18T00:06:40.064Z,14.60
2017-09-18T00:08:42.834Z,16.87
2017-09-18T00:10:45.609Z,14.00
2017-09-18T00:12:48.331Z,13.63
2017-09-18T00:14:50.991Z,14.13
2017-09-18T00:16:53.687Z,15.53
2017-09-18T00:18:56.519Z,18.57
2017-09-18T00:20:59.187Z,16.17
2017-09-18T00:23:01.885Z,14.53
2017-09-18T00:25:04.595Z,20.33
2017-09-18T00:27:07.326Z,13.87
2017-09-18T00:29:10.493Z,14.60
2017-09-18T00:31:13.949Z,19.17
2017-09-18T00:33:16.843Z,16.07
2017-09-18T00:35:19.521Z,18.13
2017-09-18T00:37:23.062Z,19.70
2017-09-18T00:39:25.849Z,16.97
2017-09-18T00:41:28.531Z,15.13
2017-09-18T00:43:31.231Z,15.03
2017-09-18T00:45:33.948Z,21.83
2017-09-18T00:47:37.380Z,18.07
2017-09-18T00:49:40.150Z,18.07
2017-09-18T00:51:42.923Z,18.53
2017-09-18T00:53:45.775Z,16.43
2017-09-18T00:55:56.372Z,18.83
2017-09-18T00:57:59.081Z,18.90
2017-09-18T01:00:01.821Z,16.23
2017-09-18T01:02:04.499Z,19.57
2017-09-18T01:04:07.208Z,24.30
2017-09-18T01:06:10.121Z,15.00
2017-09-18T01:08:12.830Z,19.23
2017-09-18T01:10:15.725Z,19.70
2017-09-18T01:12:18.487Z,18.53
2017-09-18T01:14:21.150Z,15.47
2017-09-18T01:16:23.916Z,17.40
2017-09-18T01:18:27.539Z,16.50
2017-09-18T01:20:30.320Z,16.80
2017-09-18T01:22:33.103Z,17.60
2017-09-18T01:24:35.766Z,16.83
2017-09-18T01:26:38.456Z,20.83
2017-09-18T01:28:41.212Z,18.20
2017-09-18T01:30:43.883Z,16.53
2017-09-18T01:32:46.779Z,14.23
2017-09-18T01:34:49.461Z,19.67
2017-09-18T01:36:52.201Z,18.33
2017-09-18T01:38:55.709Z,18.97
2017-09-18T01:40:59.141Z,14.40
2017-09-18T01:43:01.820Z,15.60
2017-09-18T01:45:04.551Z,15.60
2017-09-18T01:47:09.148Z,19.67
2017-09-18T01:49:11.892Z,23.60
2017-09-18T01:51:14.595Z,15.47
2017-09-18T01:53:17.276Z,17.97
2017-09-18T01:55:20.016Z,17.10
2017-09-18T01:57:22.819Z,18.03
2017-09-18T01:59:25.475Z,20.40
2017-09-18T02:01:28.140Z,19.70
2017-09-18T02:03:30.870Z,18.60
2017-09-18T02:05:33.555Z,19.37
2017-09-18T02:07:37.335Z,18.67
2017-09-18T02:09:40.142Z,20.37
2017-09-18T02:11:43.565Z,19.87
2017-09-18T02:13:46.246Z,18.70
2017-09-18T02:15:48.932Z,18.03
2017-09-18T02:17:51.703Z,22.53
2017-09-18T02:19:54.496Z,21.10
2017-09-18T02:21:57.187Z,25.67
2017-09-18T02:23:59.935Z,18.60
2017-09-18T02:26:02.619Z,18.20
2017-09-18T02:28:05.453Z,26.63
2017-09-18T02:30:08.887Z,23.03
2017-09-18T02:32:11.573Z,20.93
2017-09-18T02:34:14.513Z,18.87
2017-09-18T02:36:17.936Z,19.03
2017-09-18T02:38:20.632Z,22.43
2017-09-18T02:40:23.477Z,20.50
2017-09-18T02:42:26.170Z,22.40
2017-09-18T02:44:28.887Z,21.17
2017-09-18T02:46:31.555Z,21.77
2017-09-18T02:48:34.446Z,20.63
2017-09-18T02:50:37.344Z,22.60
2017-09-18T02:52:40.773Z,29.63
2017-09-18T02:54:43.478Z,25.13
2017-09-18T02:56:46.171Z,21.07
2017-09-18T02:58:48.984Z,21.73
2017-09-18T03:00:52.544Z,20.03
2017-09-18T03:02:55.305Z,21.70
2017-09-18T03:04:58.009Z,23.13
2017-09-18T03:07:00.742Z,22.63
2017-09-18T03:09:03.902Z,24.00
2017-09-18T03:11:07.339Z,26.00
2017-09-18T03:13:10.027Z,20.60
2017-09-18T03:15:12.921Z,19.57
2017-09-18T03:17:15.592Z,19.83
2017-09-18T03:19:18.559Z,19.00
2017-09-18T03:21:21.428Z,20.23
2017-09-18T03:23:24.198Z,20.47
2017-09-18T03:25:26.888Z,20.43
2017-09-18T03:27:29.595Z,23.70
2017-09-18T03:29:33.863Z,19.17
2017-09-18T03:31:36.670Z,19.50
2017-09-18T03:33:39.366Z,18.13
2017-09-18T03:35:42.056Z,30.43
2017-09-18T03:37:44.738Z,19.87
2017-09-18T03:39:47.587Z,16.37
2017-09-18T03:41:50.404Z,22.23
2017-09-18T03:43:53.963Z,18.13
2017-09-18T03:45:57.025Z,22.50
2017-09-18T03:47:59.809Z,19.67
2017-09-18T03:50:02.511Z,23.20
2017-09-18T03:52:05.293Z,17.80
2017-09-18T03:54:07.961Z,22.00
2017-09-18T03:56:10.788Z,19.13
2017-09-18T03:58:14.244Z,17.07
2017-09-18T04:00:16.971Z,22.17
2017-09-18T04:02:19.866Z,15.60
2017-09-18T04:04:22.645Z,19.73
2017-09-18T04:06:25.428Z,16.70
2017-09-18T04:08:28.088Z,20.30
2017-09-18T04:10:30.796Z,21.50
2017-09-18T04:12:33.487Z,16.57
2017-09-18T04:14:36.147Z,15.57
2017-09-18T04:16:38.841Z,18.97
2017-09-18T04:18:41.679Z,16.60
2017-09-18T04:20:44.468Z,18.13
2017-09-18T04:22:47.224Z,18.87
2017-09-18T04:24:50.647Z,18.73
2017-09-18T04:26:53.315Z,15.77
2017-09-18T04:28:56.255Z,17.17
2017-09-18T04:31:03.299Z,20.13
2017-09-18T04:33:05.999Z,20.13
2017-09-18T04:35:08.827Z,17.97
2017-09-18T04:37:11.486Z,17.30
2017-09-18T04:39:14.145Z,14.90
2017-09-18T04:41:17.873Z,15.73
2017-09-18T04:43:20.531Z,20.13
2017-09-18T04:45:24.061Z,18.30
2017-09-18T04:47:26.830Z,15.33
2017-09-18T04:49:29.500Z,16.10
2017-09-18T04:51:32.275Z,23.17
2017-09-18T04:53:35.711Z,16.97
2017-09-18T04:55:38.558Z,17.53
2017-09-18T04:57:41.338Z,15.80
2017-09-18T04:59:44.719Z,19.00
2017-09-18T05:01:47.612Z,20.83
2017-09-18T05:03:50.288Z,16.60
2017-09-18T05:05:53.026Z,17.00
2017-09-18T05:07:56.480Z,17.70
2017-09-18T05:09:59.156Z,19.10
2017-09-18T05:12:01.914Z,16.27
2017-09-18T05:14:04.613Z,16.90
2017-09-18T05:16:07.285Z,19.50
2017-09-18T05:18:10.369Z,15.23
2017-09-18T05:20:13.056Z,15.10
2017-09-18T05:22:15.770Z,16.33
2017-09-18T05:24:19.212Z,18.00
2017-09-18T05:26:21.996Z,14.77
2017-09-18T05:28:25.007Z,18.63
2017-09-18T05:30:27.694Z,18.57
2017-09-18T05:32:30.495Z,16.20
2017-09-18T05:34:33.953Z,14.20
2017-09-18T05:36:36.655Z,13.13
2017-09-18T05:38:40.186Z,21.70
2017-09-18T05:40:42.925Z,16.60
2017-09-18T05:42:45.712Z,11.63
2017-09-18T05:44:49.140Z,13.30
2017-09-18T05:46:53.831Z,16.20
2017-09-18T05:48:57.326Z,11.37
2017-09-18T05:51:00.855Z,13.67
2017-09-18T05:53:03.519Z,13.93
2017-09-18T05:55:06.266Z,13.60
2017-09-18T05:57:11.441Z,13.40
2017-09-18T05:59:14.217Z,11.83
2017-09-18T06:01:16.909Z,13.47
2017-09-18T06:03:19.578Z,10.70
2017-09-18T06:05:22.300Z,13.10
2017-09-18T06:07:24.996Z,13.63
2017-09-18T06:09:28.477Z,21.73
2017-09-18T06:11:31.139Z,15.67
2017-09-18T06:13:33.814Z,9.80
2017-09-18T06:15:36.694Z,13.60
2017-09-18T06:17:39.358Z,13.97
2017-09-18T06:19:42.101Z,13.20
2017-09-18T06:21:44.771Z,12.97
2017-09-18T06:23:47.435Z,13.07
2017-09-18T06:25:50.952Z,16.37
2017-09-18T06:27:53.620Z,18.80
2017-09-18T06:29:56.352Z,17.03
2017-09-18T06:31:59.067Z,16.10
2017-09-18T06:34:01.792Z,16.40
2017-09-18T06:36:04.447Z,15.23
2017-09-18T06:38:07.131Z,14.30
2017-09-18T06:40:09.803Z,11.87
2017-09-18T06:42:12.523Z,16.73
2017-09-18T06:44:15.188Z,15.73
2017-09-18T06:46:17.848Z,12.80
2017-09-18T06:48:20.666Z,12.53
2017-09-18T06:50:24.299Z,10.60
2017-09-18T06:52:27.383Z,15.60
2017-09-18T06:54:30.084Z,10.90
2017-09-18T06:56:32.742Z,17.03
2017-09-18T06:58:36.487Z,15.40
2017-09-18T07:00:39.951Z,16.63
2017-09-18T07:02:42.813Z,15.00
2017-09-18T07:04:45.616Z,16.07
2017-09-18T07:06:48.352Z,15.23
2017-09-18T07:08:51.072Z,14.57
2017-09-18T07:10:53.759Z,20.27
2017-09-18T07:12:56.483Z,21.30
2017-09-18T07:14:59.147Z,19.47
2017-09-18T07:17:02.611Z,15.40
2017-09-18T07:19:05.295Z,20.30
2017-09-18T07:21:07.963Z,18.13
2017-09-18T07:23:10.944Z,19.37
2017-09-18T07:25:13.619Z,23.43
2017-09-18T07:27:16.301Z,21.83
2017-09-18T07:29:19.139Z,19.13
2017-09-18T07:31:21.918Z,21.37
2017-09-18T07:33:24.647Z,21.07
2017-09-18T07:35:27.344Z,23.87
2017-09-18T07:37:30.799Z,28.80
2017-09-18T07:39:33.804Z,20.93
2017-09-18T07:41:37.266Z,27.63
2017-09-18T07:43:39.936Z,29.53
2017-09-18T07:45:42.643Z,24.40
2017-09-18T07:47:45.359Z,24.83
2017-09-18T07:49:48.028Z,27.43
2017-09-18T07:51:50.824Z,24.80
2017-09-18T07:53:53.705Z,19.33
2017-09-18T07:55:56.376Z,28.80
2017-09-18T07:57:59.067Z,25.43
2017-09-18T08:00:02.047Z,22.60
2017-09-18T08:02:04.748Z,29.23
2017-09-18T08:04:07.425Z,22.10
2017-09-18T08:06:10.146Z,22.10
2017-09-18T08:08:12.848Z,25.10
2017-09-18T08:10:15.520Z,23.30
2017-09-18T08:12:18.273Z,30.90
2017-09-18T08:14:21.713Z,31.50
2017-09-18T08:16:24.589Z,32.93
2017-09-18T08:18:27.485Z,24.87
2017-09-18T08:20:30.153Z,28.70
2017-09-18T08:22:32.832Z,23.73
2017-09-18T08:24:35.530Z,26.17
2017-09-18T08:26:38.311Z,21.00
2017-09-18T08:28:41.087Z,24.43
2017-09-18T08:30:44.659Z,25.63
2017-09-18T08:32:47.602Z,23.07
2017-09-18T08:34:50.283Z,25.53
2017-09-18T08:36:53.247Z,23.93
2017-09-18T08:38:56.711Z,27.63
2017-09-18T08:40:59.371Z,24.13
2017-09-18T08:43:02.115Z,27.50
2017-09-18T08:45:04.839Z,28.97
2017-09-18T08:47:07.547Z,22.50
2017-09-18T08:49:11.017Z,28.53
2017-09-18T08:51:13.687Z,23.93
2017-09-18T08:53:16.499Z,18.70
2017-09-18T08:55:19.966Z,19.43
2017-09-18T08:57:22.726Z,23.83
2017-09-18T08:59:25.484Z,25.73
2017-09-18T09:01:28.167Z,22.60
2017-09-18T09:03:31.050Z,20.70
2017-09-18T09:05:33.859Z,19.73
2017-09-18T09:07:36.907Z,21.60
2017-09-18T09:09:39.804Z,16.80
2017-09-18T09:11:42.714Z,20.97
2017-09-18T09:13:45.512Z,24.83
2017-09-18T09:15:48.972Z,22.10
2017-09-18T09:17:51.721Z,27.70
2017-09-18T09:19:55.476Z,22.47
2017-09-18T09:21:58.163Z,24.93
2017-09-18T09:24:01.590Z,30.03
2017-09-18T09:26:04.314Z,32.10
2017-09-18T09:28:06.986Z,27.53
2017-09-18T09:30:09.723Z,18.00
2017-09-18T09:32:12.391Z,21.80
2017-09-18T09:34:15.291Z,22.90
2017-09-18T09:36:17.993Z,21.20
2017-09-18T09:38:20.912Z,17.43
2017-09-18T09:40:24.331Z,17.97
2017-09-18T09:42:27.015Z,17.37
2017-09-18T09:44:29.859Z,22.33
2017-09-18T09:46:33.354Z,43.67
2017-09-18T09:48:37.026Z,18.87
2017-09-18T09:50:40.458Z,35.80
2017-09-18T09:52:43.287Z,14.20
2017-09-18T09:54:46.135Z,15.63
2017-09-18T09:56:48.799Z,14.10
2017-09-18T09:58:51.527Z,14.37
2017-09-18T10:00:54.214Z,16.07
2017-09-18T10:02:56.874Z,17.10
2017-09-18T10:04:59.580Z,17.83
2017-09-18T10:07:03.011Z,17.17
2017-09-18T10:09:05.736Z,16.43
2017-09-18T10:11:08.431Z,17.00
2017-09-18T10:13:11.962Z,20.03
2017-09-18T10:15:14.891Z,16.47
2017-09-18T10:17:17.575Z,18.17
2017-09-18T10:19:20.431Z,18.83
2017-09-18T10:21:25.595Z,17.27
2017-09-18T10:23:29.075Z,18.40
2017-09-18T10:25:31.739Z,18.80
2017-09-18T10:27:34.443Z,16.27
2017-09-18T10:29:37.868Z,16.60
2017-09-18T10:31:40.533Z,13.90
2017-09-18T10:33:43.370Z,14.37
2017-09-18T10:35:46.066Z,14.80
2017-09-18T10:37:48.859Z,16.07
2017-09-18T10:39:52.383Z,22.33
2017-09-18T10:41:55.078Z,15.23
2017-09-18T10:43:57.741Z,17.30
2017-09-18T10:46:00.437Z,18.20
2017-09-18T10:48:03.295Z,16.00
2017-09-18T10:50:06.069Z,17.77
2017-09-18T10:52:08.762Z,14.87
2017-09-18T10:54:11.688Z,19.10
2017-09-18T10:56:15.252Z,14.10
2017-09-18T10:58:18.053Z,21.67
2017-09-18T11:00:21.491Z,13.00
2017-09-18T11:02:24.153Z,15.97
2017-09-18T11:04:27.615Z,12.23
2017-09-18T11:06:30.305Z,17.00
2017-09-18T11:08:33.867Z,15.07
2017-09-18T11:10:36.629Z,15.03
2017-09-18T11:12:39.353Z,13.53
2017-09-18T11:14:42.076Z,11.30
2017-09-18T11:16:44.760Z,11.70
2017-09-18T11:18:47.637Z,14.03
2017-09-18T11:20:50.346Z,11.30
2017-09-18T11:22:53.207Z,9.97
2017-09-18T11:24:56.196Z,11.07
2017-09-18T11:26:58.867Z,10.50
2017-09-18T11:29:01.576Z,14.03
2017-09-18T11:31:04.405Z,8.87
2017-09-18T11:33:07.120Z,8.33
2017-09-18T11:35:10.774Z,9.50
2017-09-18T11:37:14.076Z,8.70
2017-09-18T11:39:16.781Z,10.77
2017-09-18T11:41:19.480Z,18.10
2017-09-18T11:43:22.131Z,9.33
2017-09-18T11:45:24.975Z,10.50
2017-09-18T11:47:27.668Z,11.47
2017-09-18T11:49:30.383Z,6.97
2017-09-18T11:51:33.224Z,6.90
2017-09-18T11:53:36.120Z,7.20
2017-09-18T11:55:38.875Z,9.20
2017-09-18T11:57:41.539Z,10.80
2017-09-18T11:59:44.230Z,8.20
2017-09-18T12:01:47.116Z,7.10
2017-09-18T12:03:49.986Z,12.10
2017-09-18T12:05:52.908Z,8.47
2017-09-18T12:07:56.784Z,5.77
2017-09-18T12:09:59.552Z,6.37
2017-09-18T12:12:02.537Z,8.37
2017-09-18T12:14:05.210Z,5.50
2017-09-18T12:16:07.867Z,9.97
2017-09-18T12:18:10.624Z,7.70
2017-09-18T12:20:14.665Z,6.50
2017-09-18T12:22:17.505Z,7.43
2017-09-18T12:24:20.189Z,6.83
2017-09-18T12:26:23.744Z,8.90
2017-09-18T12:28:26.519Z,6.23
2017-09-18T12:30:29.299Z,5.60
2017-09-18T12:32:32.867Z,7.30
2017-09-18T12:34:35.569Z,6.00
2017-09-18T12:36:38.949Z,6.80
2017-09-18T12:38:41.742Z,3.70
2017-09-18T12:40:44.495Z,10.77
2017-09-18T12:42:47.284Z,5.27
2017-09-18T12:44:49.956Z,4.70
2017-09-18T12:46:52.767Z,5.03
2017-09-18T12:48:56.236Z,4.20
2017-09-18T12:50:59.016Z,8.87
2017-09-18T12:53:01.906Z,3.30
2017-09-18T12:55:04.612Z,5.00
2017-09-18T12:57:07.350Z,3.63
2017-09-18T12:59:10.043Z,6.23
2017-09-18T13:01:12.900Z,11.07
2017-09-18T13:03:15.617Z,5.07
2017-09-18T13:05:18.299Z,4.37
2017-09-18T13:07:21.219Z,6.33
2017-09-18T13:09:24.689Z,4.63
2017-09-18T13:11:27.373Z,7.10
2017-09-18T13:13:30.053Z,6.30
2017-09-18T13:15:32.847Z,12.07
2017-09-18T13:17:35.557Z,5.30
2017-09-18T13:19:38.275Z,8.63
2017-09-18T13:21:40.923Z,3.10
2017-09-18T13:23:44.539Z,3.27
2017-09-18T13:25:47.246Z,2.20
2017-09-18T13:27:50.740Z,6.03
2017-09-18T13:29:54.197Z,3.20
2017-09-18T13:31:56.860Z,6.00
2017-09-18T13:33:59.717Z,6.10
2017-09-18T13:36:02.497Z,3.57
2017-09-18T13:38:05.339Z,3.33
2017-09-18T13:40:08.766Z,2.47
2017-09-18T13:42:11.537Z,3.50
2017-09-18T13:44:14.307Z,4.00
2017-09-18T13:46:17.722Z,2.90
2017-09-18T13:48:20.776Z,3.17
2017-09-18T13:50:24.211Z,5.03
2017-09-18T13:52:27.257Z,9.00
2017-09-18T13:54:30.735Z,6.10
2017-09-18T13:56:33.486Z,5.23
2017-09-18T13:58:36.232Z,2.93
2017-09-18T14:00:39.011Z,5.10
2017-09-18T14:02:41.758Z,5.40
2017-09-18T14:04:46.437Z,6.70
2017-09-18T14:06:49.195Z,4.20
2017-09-18T14:08:51.902Z,2.50
2017-09-18T14:10:54.659Z,1.80
2017-09-18T14:12:57.356Z,5.93
2017-09-18T14:15:00.031Z,2.47
2017-09-18T14:17:02.740Z,4.67
2017-09-18T14:19:06.159Z,4.60
2017-09-18T14:21:08.816Z,3.60
2017-09-18T14:23:12.388Z,4.37
2017-09-18T14:25:15.839Z,8.63
2017-09-18T14:27:18.519Z,3.07
2017-09-18T14:29:21.190Z,7.40
2017-09-18T14:31:23.873Z,7.27
2017-09-18T14:33:26.690Z,2.70
2017-09-18T14:35:29.457Z,4.60
2017-09-18T14:37:32.102Z,2.90
2017-09-18T14:39:34.998Z,4.20
2017-09-18T14:41:37.757Z,6.73
2017-09-18T14:43:40.535Z,4.73
2017-09-18T14:45:43.238Z,3.90
2017-09-18T14:47:45.908Z,6.73
2017-09-18T14:49:48.873Z,5.17
2017-09-18T14:51:51.679Z,3.30
2017-09-18T14:53:59.161Z,6.57
2017-09-18T14:56:01.828Z,5.50
2017-09-18T14:58:04.592Z,4.37
2017-09-18T15:00:07.229Z,7.47
2017-09-18T15:02:10.656Z,4.17
2017-09-18T15:04:13.369Z,5.37
2017-09-18T15:06:20.482Z,4.70
2017-09-18T15:08:23.272Z,6.73
2017-09-18T15:10:26.917Z,3.30
2017-09-18T15:12:29.698Z,4.83
2017-09-18T15:14:32.397Z,4.73
2017-09-18T15:16:35.176Z,6.13
2017-09-18T15:18:37.861Z,3.23
2017-09-18T15:20:40.500Z,11.10
2017-09-18T15:22:43.712Z,4.90
2017-09-18T15:24:46.394Z,8.30
2017-09-18T15:26:49.158Z,9.30
2017-09-18T15:28:51.842Z,3.57
2017-09-18T15:30:54.813Z,7.13
2017-09-18T15:32:57.730Z,2.37
2017-09-18T15:35:01.188Z,4.90
2017-09-18T15:37:03.937Z,3.73
2017-09-18T15:39:06.599Z,3.60
2017-09-18T15:41:09.457Z,3.33
2017-09-18T15:43:12.881Z,4.33
2017-09-18T15:45:15.631Z,2.33
2017-09-18T15:47:19.676Z,2.80
2017-09-18T15:49:22.350Z,4.00
2017-09-18T15:51:25.051Z,3.90
2017-09-18T15:53:27.925Z,3.03
2017-09-18T15:55:30.903Z,2.60
2017-09-18T15:57:33.556Z,3.40
2017-09-18T15:59:36.249Z,5.40
2017-09-18T16:01:39.036Z,2.10
2017-09-18T16:03:41.697Z,3.00
2017-09-18T16:05:45.378Z,4.07
2017-09-18T16:07:48.040Z,2.30
2017-09-18T16:09:51.587Z,2.10
2017-09-18T16:11:54.376Z,3.40
2017-09-18T16:13:57.106Z,2.30
2017-09-18T16:15:59.949Z,2.20
2017-09-18T16:18:02.633Z,5.57
2017-09-18T16:20:05.312Z,14.37
2017-09-18T16:22:07.998Z,27.83
2017-09-18T16:24:11.593Z,17.83
2017-09-18T16:26:14.336Z,4.07
2017-09-18T16:28:17.800Z,10.47
2017-09-18T16:30:20.588Z,7.23
2017-09-18T16:32:23.310Z,5.20
2017-09-18T16:34:26.023Z,6.10
2017-09-18T16:36:28.786Z,6.43
2017-09-18T16:38:32.246Z,6.03
2017-09-18T16:40:34.952Z,12.20
2017-09-18T16:42:38.408Z,4.90
2017-09-18T16:44:41.063Z,13.77
2017-09-18T16:46:43.771Z,4.70
2017-09-18T16:48:46.440Z,23.03
2017-09-18T16:50:49.124Z,11.00
2017-09-18T16:52:51.876Z,21.83
2017-09-18T16:54:54.533Z,6.67
2017-09-18T16:56:57.192Z,6.90
2017-09-18T16:58:59.884Z,6.20
2017-09-18T17:01:02.583Z,5.33
2017-09-18T17:03:05.350Z,10.07
2017-09-18T17:05:08.078Z,15.27
2017-09-18T17:07:10.786Z,12.70
2017-09-18T17:09:13.544Z,7.53
2017-09-18T17:11:16.962Z,10.30
2017-09-18T17:13:19.657Z,7.60
2017-09-18T17:15:22.534Z,7.13
2017-09-18T17:17:25.207Z,6.30
2017-09-18T17:19:28.021Z,11.10
2017-09-18T17:21:30.766Z,7.33
2017-09-18T17:23:33.469Z,8.17
2017-09-18T17:25:36.273Z,9.50
2017-09-18T17:27:38.921Z,10.93
2017-09-18T17:29:41.674Z,9.40
2017-09-18T17:31:44.344Z,8.43
2017-09-18T17:33:47.027Z,9.20
2017-09-18T17:35:49.747Z,7.73
2017-09-18T17:37:52.431Z,10.90
2017-09-18T17:39:55.106Z,8.63
2017-09-18T17:41:57.815Z,10.00
2017-09-18T17:44:00.517Z,12.13
2017-09-18T17:46:03.290Z,13.70
2017-09-18T17:48:17.123Z,9.93
2017-09-18T17:50:20.619Z,18.83
2017-09-18T17:52:27.617Z,12.83
2017-09-18T17:54:33.029Z,22.03
2017-09-18T17:56:45.061Z,18.53
2017-09-18T17:58:48.551Z,18.67
2017-09-18T18:00:51.538Z,21.60
2017-09-18T18:02:55.004Z,20.30
2017-09-18T18:04:57.662Z,14.27
2017-09-18T18:07:01.122Z,10.80
2017-09-18T18:09:03.907Z,13.70
2017-09-18T18:11:07.898Z,9.97
2017-09-18T18:13:11.427Z,10.67
2017-09-18T18:15:14.756Z,12.20
2017-09-18T18:17:17.797Z,16.47
2017-09-18T18:19:21.909Z,10.77
2017-09-18T18:21:25.446Z,9.90
2017-09-18T18:23:28.103Z,13.57
2017-09-18T18:25:30.837Z,11.23
2017-09-18T18:27:33.610Z,9.83
2017-09-18T18:29:42.586Z,11.40
2017-09-18T18:31:45.620Z,12.07
2017-09-18T18:33:48.508Z,12.00
2017-09-18T18:35:51.149Z,12.93
2017-09-18T18:37:54.019Z,14.47
2017-09-18T18:39:56.726Z,14.57
2017-09-18T18:41:59.450Z,14.53
2017-09-18T18:44:02.971Z,12.70
2017-09-18T18:46:05.650Z,17.10
2017-09-18T18:48:08.429Z,12.60
2017-09-18T18:50:11.123Z,14.17
2017-09-18T18:52:14.005Z,12.17
2017-09-18T18:54:16.708Z,15.67
2017-09-18T18:56:20.182Z,12.93
2017-09-18T18:58:22.892Z,14.03
2017-09-18T19:00:26.132Z,14.73
2017-09-18T19:02:28.876Z,14.30
2017-09-18T19:04:32.477Z,15.10
2017-09-18T19:06:35.902Z,13.33
2017-09-18T19:08:38.571Z,17.30
2017-09-18T19:10:50.372Z,12.53
2017-09-18T19:12:53.048Z,15.67
2017-09-18T19:14:55.813Z,14.43
2017-09-18T19:16:58.500Z,14.07
2017-09-18T19:19:01.272Z,15.60
2017-09-18T19:21:03.986Z,14.37
2017-09-18T19:23:06.692Z,16.97
2017-09-18T19:25:10.218Z,16.77
2017-09-18T19:27:12.894Z,17.07
2017-09-18T19:29:15.780Z,15.50
2017-09-18T19:31:18.459Z,18.60
2017-09-18T19:33:21.145Z,19.00
2017-09-18T19:35:23.818Z,16.87
2017-09-18T19:37:26.474Z,19.53
2017-09-18T19:39:29.370Z,16.57
2017-09-18T19:41:32.251Z,22.77
2017-09-18T19:43:34.899Z,18.43
2017-09-18T19:45:37.686Z,31.03
2017-09-18T19:47:40.409Z,25.30
2017-09-18T19:49:43.682Z,34.83
2017-09-18T19:51:47.951Z,25.07
2017-09-18T19:53:51.413Z,24.17
2017-09-18T19:55:54.083Z,22.77
2017-09-18T19:57:56.757Z,27.23
2017-09-18T19:59:59.728Z,50.00
2017-09-18T20:02:02.420Z,27.17
2017-09-18T20:04:05.093Z,26.50
2017-09-18T20:06:07.797Z,23.87
2017-09-18T20:08:10.452Z,22.17
2017-09-18T20:10:13.222Z,23.27
2017-09-18T20:12:15.997Z,26.80
2017-09-18T20:14:18.686Z,30.90
2017-09-18T20:16:21.492Z,29.27
2017-09-18T20:18:24.918Z,33.67
2017-09-18T20:20:27.684Z,31.40
2017-09-18T20:22:31.262Z,38.70
2017-09-18T20:24:34.721Z,30.23
2017-09-18T20:26:37.406Z,33.70
2017-09-18T20:28:40.084Z,35.03
2017-09-18T20:30:42.823Z,28.20
2017-09-18T20:32:45.543Z,33.90
2017-09-18T20:34:48.233Z,36.50
2017-09-18T20:36:50.983Z,31.90
2017-09-18T20:38:53.694Z,30.80
2017-09-18T20:40:57.329Z,40.63
2017-09-18T20:43:00.113Z,31.20
2017-09-18T20:45:02.780Z,37.70
2017-09-18T20:47:05.564Z,33.70
2017-09-18T20:49:08.236Z,31.90
2017-09-18T20:51:10.880Z,36.00
2017-09-18T20:53:14.429Z,33.93
2017-09-18T20:55:17.086Z,41.80
2017-09-18T20:57:20.221Z,47.23
2017-09-18T20:59:22.892Z,37.73
2017-09-18T21:01:25.543Z,32.30
2017-09-18T21:03:28.305Z,47.93
2017-09-18T21:05:30.964Z,40.67
2017-09-18T21:07:33.635Z,45.57
2017-09-18T21:09:36.370Z,41.03
2017-09-18T21:11:39.106Z,44.10
2017-09-18T21:13:41.780Z,38.47
2017-09-18T21:15:44.482Z,51.77
2017-09-18T21:17:47.230Z,43.73
2017-09-18T21:19:50.055Z,54.00
2017-09-18T21:21:52.729Z,45.37
2017-09-18T21:23:55.598Z,48.57
2017-09-18T21:25:58.288Z,48.90
2017-09-18T21:28:01.001Z,52.43
2017-09-18T21:30:04.539Z,48.27
2017-09-18T21:32:07.212Z,51.73
2017-09-18T21:34:10.016Z,49.97
2017-09-18T21:36:12.726Z,49.50
2017-09-18T21:38:16.136Z,54.67
2017-09-18T21:40:18.953Z,51.80
2017-09-18T21:42:21.613Z,54.60
2017-09-18T21:44:24.287Z,56.97
2017-09-18T21:46:27.175Z,49.03
2017-09-18T21:48:29.832Z,58.43
2017-09-18T21:50:32.491Z,52.73
2017-09-18T21:52:36.034Z,56.47
2017-09-18T21:54:38.685Z,50.97
2017-09-18T21:56:42.280Z,58.77
2017-09-18T21:58:44.973Z,55.50
2017-09-18T22:00:47.663Z,68.63
2017-09-18T22:02:50.329Z,49.50
2017-09-18T22:04:53.024Z,48.57
2017-09-18T22:06:55.764Z,74.23
2017-09-18T22:08:58.415Z,51.23
2017-09-18T22:11:01.854Z,54.27
2017-09-18T22:13:04.493Z,55.00
2017-09-18T22:15:07.161Z,74.60
2017-09-18T22:17:10.613Z,61.43
2017-09-18T22:19:13.238Z,62.63
2017-09-18T22:21:15.879Z,70.97
2017-09-18T22:23:18.579Z,70.73
2017-09-18T22:25:21.973Z,87.13
2017-09-18T22:27:25.492Z,68.10
2017-09-18T22:29:28.262Z,74.20
2017-09-18T22:31:30.899Z,68.77
2017-09-18T22:33:34.308Z,76.60
2017-09-18T22:35:37.742Z,66.37
2017-09-18T22:37:40.471Z,69.10
2017-09-18T22:39:43.097Z,78.33
2017-09-18T22:41:45.758Z,80.23
2017-09-18T22:43:49.166Z,66.83
2017-09-18T22:45:51.795Z,67.30
2017-09-18T22:47:54.474Z,64.23
2017-09-18T22:49:57.878Z,73.43
2017-09-18T22:52:00.546Z,67.20
2017-09-18T22:54:03.970Z,61.73
2017-09-18T22:56:06.595Z,58.17
2017-09-18T22:58:09.246Z,73.30
2017-09-18T23:00:11.997Z,57.17
2017-09-18T23:02:14.638Z,59.67
2017-09-18T23:04:18.130Z,55.77
2017-09-18T23:06:21.563Z,55.57
2017-09-18T23:08:24.267Z,66.20
2017-09-18T23:10:27.744Z,72.93
2017-09-18T23:12:30.375Z,56.33
2017-09-18T23:14:33.782Z,54.00
2017-09-18T23:16:37.300Z,62.77
2017-09-18T23:18:40.031Z,61.87
2017-09-18T23:20:42.660Z,58.87
2017-09-18T23:22:45.339Z,72.23
2017-09-18T23:24:47.966Z,68.20
2017-09-18T23:26:50.602Z,51.60
2017-09-18T23:28:53.302Z,58.47
2017-09-18T23:30:55.931Z,61.23
2017-09-18T23:32:58.558Z,60.40
2017-09-18T23:35:01.215Z,71.13
2017-09-18T23:37:03.849Z,58.17
2017-09-18T23:39:06.531Z,54.63
2017-09-18T23:41:10.105Z,57.43
2017-09-18T23:43:13.510Z,56.70
2017-09-18T23:45:16.129Z,77.30
2017-09-18T23:47:19.546Z,72.83
2017-09-18T23:49:22.227Z,70.13
2017-09-18T23:51:25.650Z,66.30
2017-09-18T23:53:28.302Z,73.73
2017-09-18T23:55:31.755Z,77.00
2017-09-18T23:57:34.383Z,69.40
2017-09-18T23:59:37.901Z,72.23
